Time;durP1;ratioP1;P1;durP2;ratioP2;P2;SDS_P1;SDS_P2;PMS_P1;PMS_P2;Temp;Humidity;BMP_temperature;BMP_pressure;BME280_temperature;BME280_humidity;BME280_pressure;Samples;Min_cycle;Max_cycle;Signal;HPM_P1;HPM_P2
2023/02/24 15:58:37;;;;;;;2.38;1.35;;;11.00;89.00;;;;;;5188756;23;20057;-79
2023/02/24 16:01:03;;;;;;;2.55;1.40;;;11.10;89.10;;;;;;5038168;28;20018;-80
2023/02/24 16:03:28;;;;;;;2.65;1.20;;;10.90;89.00;;;;;;5038159;28;20077;-79
2023/02/24 16:05:57;;;;;;;2.97;1.40;;;11.00;89.00;;;;;;5038320;28;20018;-79
2023/02/24 16:09:07;;;;;;;2.70;1.33;;;10.90;89.00;;;;;;5038818;28;20041;-81
2023/02/24 16:12:11;;;;;;;2.65;1.30;;;10.90;88.90;;;;;;5038430;28;20017;-84
2023/02/24 16:17:48;;;;;;;2.33;1.45;;;10.80;89.00;;;;;;5038077;28;20022;-80
2023/02/24 16:20:41;;;;;;;2.63;1.30;;;10.90;89.00;;;;;;5018314;28;20038;-79
2023/02/24 16:23:15;;;;;;;2.53;1.42;;;10.80;89.00;;;;;;5018716;28;20016;-79
2023/02/24 16:25:55;;;;;;;3.25;1.58;;;10.90;89.10;;;;;;5018183;28;20042;-80
2023/02/24 16:32:03;;;;;;;3.35;1.75;;;10.90;89.10;;;;;;5018371;28;20033;-79
2023/02/24 16:34:32;;;;;;;2.35;1.30;;;11.10;89.20;;;;;;5017947;28;20019;-81
2023/02/24 16:37:51;;;;;;;3.08;1.52;;;10.90;89.20;;;;;;5018208;28;20030;-79
2023/02/24 16:41:01;;;;;;;3.90;1.70;;;11.00;89.20;;;;;;5012834;28;20030;-79
2023/02/24 16:51:21;;;;;;;2.47;1.35;;;10.90;89.10;;;;;;4997681;28;20086;-79
2023/02/24 16:53:51;;;;;;;2.75;1.58;;;11.00;89.20;;;;;;4997414;28;20038;-80
2023/02/24 16:56:26;;;;;;;2.70;1.40;;;10.80;89.10;;;;;;4997531;28;20023;-79
2023/02/24 16:59:29;;;;;;;3.00;1.40;;;11.00;89.20;;;;;;4995387;28;20049;-80
2023/02/24 17:01:56;;;;;;;3.00;1.50;;;10.80;89.10;;;;;;5034374;28;20011;-78
2023/02/24 17:04:25;;;;;;;2.50;1.38;;;10.90;89.20;;;;;;5017396;28;20019;-80
2023/02/24 17:06:56;;;;;;;2.92;1.55;;;10.90;89.20;;;;;;5033525;28;20018;-79
2023/02/24 17:16:10;;;;;;;3.97;1.60;;;10.90;89.20;;;;;;5019931;28;20106;-80
2023/02/24 17:19:13;;;;;;;5.13;1.92;;;12.40;90.00;;;;;;5019763;28;20185;-80
2023/02/24 17:25:01;;;;;;;8.85;2.47;;;10.90;88.90;;;;;;5020426;28;20066;-79
2023/02/24 17:27:27;;;;;;;5.35;1.80;;;11.20;88.70;;;;;;5021263;28;20090;-79
2023/02/24 17:29:56;;;;;;;4.80;1.65;;;10.90;88.40;;;;;;5020661;28;20014;-80
2023/02/24 17:32:22;;;;;;;4.88;2.58;;;11.10;88.60;;;;;;5018925;28;20022;-79
2023/02/24 17:35:02;;;;;;;4.65;1.75;;;10.90;88.70;;;;;;5019300;28;20023;-79
2023/02/24 17:37:28;;;;;;;4.20;1.60;;;10.90;88.80;;;;;;5020411;28;20085;-79
2023/02/24 17:39:54;;;;;;;6.07;2.05;;;10.80;88.70;;;;;;5019249;28;20276;-80
2023/02/24 17:42:20;;;;;;;5.72;2.13;;;10.90;88.90;;;;;;5016660;28;20018;-80
2023/02/24 17:44:46;;;;;;;2.97;1.60;;;10.80;88.80;;;;;;5016583;28;20015;-80
2023/02/24 17:47:34;;;;;;;4.75;1.60;;;10.70;88.90;;;;;;5017332;28;20019;-80
2023/02/24 17:50:01;;;;;;;4.38;1.70;;;10.90;89.00;;;;;;5015559;28;20090;-79
2023/02/24 17:52:48;;;;;;;3.65;1.73;;;10.90;89.00;;;;;;5000192;28;20015;-79
2023/02/24 17:55:33;;;;;;;3.38;1.60;;;10.90;89.10;;;;;;5010040;28;20083;-78
2023/02/24 17:58:13;;;;;;;5.78;1.90;;;10.90;89.60;;;;;;5013721;28;20062;-79
2023/02/24 18:00:42;;;;;;;5.55;2.17;;;10.80;89.00;;;;;;4998903;28;20014;-80
2023/02/24 18:28:01;;;;;;;5.55;1.63;;;10.90;89.10;;;;;;5073704;23;20042;-80
2023/02/24 18:30:31;;;;;;;2.92;1.60;;;10.80;89.10;;;;;;5019455;28;20014;-81
2023/02/24 18:32:58;;;;;;;3.63;1.60;;;10.80;89.00;;;;;;5018933;28;20022;-80
2023/02/24 18:35:24;;;;;;;3.80;1.60;;;10.90;89.10;;;;;;5019341;28;20086;-79
2023/02/24 18:38:34;;;;;;;2.92;1.60;;;10.80;89.00;;;;;;5019338;28;20019;-79
2023/02/24 18:41:56;;;;;;;2.60;1.40;;;10.80;89.00;;;;;;5019114;28;20030;-80
2023/02/24 18:44:22;;;;;;;3.28;1.55;;;10.70;89.00;;;;;;5018780;28;20205;-80
2023/02/24 18:47:09;;;;;;;3.38;1.50;;;10.80;89.10;;;;;;4999216;28;20019;-79
2023/02/24 18:50:16;;;;;;;3.28;1.40;;;10.90;89.20;;;;;;4990965;28;20487;-81
2023/02/24 18:52:42;;;;;;;3.08;1.40;;;10.80;89.60;;;;;;5020187;28;20018;-79
2023/02/24 18:58:32;;;;;;;4.78;1.85;;;10.70;89.10;;;;;;5002254;28;20133;-79
2023/02/24 19:08:08;;;;;;;11.20;2.28;;;10.90;89.50;;;;;;5020579;28;20074;-81
2023/02/24 19:10:39;;;;;;;7.40;1.70;;;10.90;88.20;;;;;;4996668;28;20033;-79
2023/02/24 19:20:34;;;;;;;16.38;2.85;;;10.90;88.40;;;;;;5019060;28;20046;-80
2023/02/24 19:23:44;;;;;;;7.40;2.03;;;10.90;88.50;;;;;;5019288;28;20061;-80
2023/02/24 19:29:38;;;;;;;6.45;1.75;;;11.00;88.50;;;;;;5018539;28;20385;-82
2023/02/24 19:35:27;;;;;;;5.70;2.03;;;11.10;88.80;;;;;;5006911;28;20080;-79
2023/02/24 19:37:56;;;;;;;5.10;1.50;;;11.20;89.20;;;;;;5026517;28;20045;-80
2023/02/24 19:40:25;;;;;;;6.75;1.75;;;11.10;89.20;;;;;;5017159;28;20337;-80
2023/02/24 19:42:54;;;;;;;7.90;2.00;;;11.20;89.50;;;;;;5018487;28;20010;-79
2023/02/24 19:55:35;;;;;;;4.35;1.52;;;11.50;90.90;;;;;;4998750;28;20071;-80
2023/02/24 19:58:20;;;;;;;7.05;1.60;;;11.50;91.00;;;;;;4979037;28;20043;-81
2023/02/24 23:32:38;;;;;;;5.80;1.70;;;11.30;89.60;;;;;;4959743;26;20072;-80
2023/02/24 23:35:05;;;;;;;6.38;1.58;;;11.40;89.60;;;;;;4960099;28;20026;-80
2023/02/24 23:37:36;;;;;;;5.07;1.55;;;11.30;89.70;;;;;;4960463;28;20028;-79
2023/02/24 23:48:01;;;;;;;4.43;1.50;;;11.30;89.60;;;;;;5586920;23;20161;-80
2023/02/24 23:50:27;;;;;;;6.35;1.90;;;11.30;89.50;;;;;;5018312;28;20038;-79
2023/02/24 23:52:53;;;;;;;5.82;1.52;;;11.30;89.60;;;;;;5018255;28;20010;-79
2023/02/24 23:55:19;;;;;;;4.68;1.20;;;11.30;89.60;;;;;;5018032;28;20078;-79
2023/02/24 23:57:45;;;;;;;7.78;1.90;;;11.30;89.60;;;;;;5018071;28;20050;-79
